Airfield :
LOGIN :

Register | Disclaimer

   EN    FR    IT 

 










Legend :    VFR   Marginal VFR   IFR   Intensive IFR   Very Intensive IFR
Visi :
Ceiling :
>= 8 km
>= 3000ft
5 to 8 km
1000 to 3000 ft
1500m to 5 km
500 to 1000 ft
800 to 1500m
200 to 500 ft
< 800m
< 200 ft
Symbols :   Thunderstorms  Fog  Heavy snow  Heavy precipitations  Wind > 20 kt
SIGMETs :     Misc.  Thunderstorms  Icing  Turbulence  Mountain Waves  Volcanic Ashes







- Airport Elevation : 144 ft
- IATA code : PGF
- Download approach charts


LFMP - Perpignan

CURRENT METAR :
  • 220930Z AUTO 30008KT 250V340 9999 NCD 26/15 Q1022 NOSIG

EXPIRED METARs :
  • 220900Z AUTO 30008KT 260V330 9999 NCD 24/14 Q1022 NOSIG
  • 220830Z AUTO 28006KT 250V320 CAVOK 24/15 Q1022 NOSIG
  • 220800Z AUTO VRB04KT CAVOK 23/14 Q1022 NOSIG
  • 220730Z AUTO 30005KT 260V350 9999 NCD 22/14 Q1022 NOSIG
  • 220700Z AUTO 30008KT 270V330 CAVOK 21/14 Q1022 NOSIG
  • 220630Z AUTO VRB03KT CAVOK 21/13 Q1022 NOSIG

TAF TAF LFMP
Valid from the 22 at 09:00 until the 23 at 09:00 UTC


220800Z 2209/2309 32012KT CAVOK
ATIS : +33 4 68 63 75 12
No reported NOTAMs for that airfield.



MET'MAP, your aeronautical weather chart ! - Copyright ORBIFLY December 2007 - Disclaimer

ORBIFLY MET'MAP TEAM :

Programming & Development : Alexandra Zaïnal
Concept & Development : Baudouin d'Aumeries
Co-Development & Prog : Marc-Olivier Méhu
Technical & hardware support : Manuel Goepfert

Contact : metmap@orbifly.com




SOURCES & CREDITS :

   NOAA